PPIZ

Point Lay LRRS Airport

Airport
ICAO code
PPIZ
Summary
ICAO Region
NAM
ICAO Territory
Location

Point Lay, Alaska,

Coordinates
69° 43' 58" N , 163° 0' 19" W
Metar
PPIZ 240556Z AUTO 21016KT 10SM CLR 13/08 A2996 RMK AO2 SLP149 T01330083 10156 20128 58006

Point Lay LRRS Airport (IATA: PIZ) is a public and military use airport owned by the United States Government and located in Point Lay, in the North Slope Borough of the U.S. state of Alaska. It is also known as Point Lay Airport. The acronym LRRS stands for Long Range Radar Site or Long Range Radar Station.

Runways

Designator Length Width Surface Rops
5/23 1073 24 GVL Yes/Yes

Airport map

Aerial View

SKYbrary Partners:

Safety knowledge contributed by: